createdAt,value
2022-09-11T00:01:53.550Z,23.23
2022-09-11T00:04:21.226Z,23.98
2022-09-11T00:06:49.805Z,24.30
2022-09-11T00:09:18.818Z,23.80
2022-09-11T00:11:49.862Z,24.25
2022-09-11T00:14:17.472Z,24.92
2022-09-11T00:16:47.338Z,24.80
2022-09-11T00:19:17.441Z,24.83
2022-09-11T00:21:45.341Z,24.70
2022-09-11T00:24:13.162Z,25.10
2022-09-11T00:26:42.407Z,23.83
2022-09-11T00:29:10.216Z,25.15
2022-09-11T00:31:38.438Z,24.70
2022-09-11T00:34:06.844Z,24.70
2022-09-11T00:36:35.804Z,25.45
2022-09-11T00:39:03.701Z,24.43
2022-09-11T00:41:33.468Z,23.75
2022-09-11T00:44:04.839Z,24.27
2022-09-11T00:46:41.516Z,26.48
2022-09-11T00:49:17.770Z,25.67
2022-09-11T00:51:47.676Z,25.25
2022-09-11T00:54:16.475Z,26.45
2022-09-11T00:56:44.421Z,25.75
2022-09-11T00:59:13.978Z,25.63
2022-09-11T01:01:41.983Z,25.77
2022-09-11T01:04:10.382Z,24.33
2022-09-11T01:06:38.185Z,24.33
2022-09-11T01:09:05.826Z,24.15
2022-09-11T01:11:43.169Z,24.27
2022-09-11T01:14:21.389Z,24.52
2022-09-11T01:16:54.558Z,24.10
2022-09-11T01:19:32.567Z,25.55
2022-09-11T01:22:11.165Z,24.58
2022-09-11T01:24:50.470Z,25.30
2022-09-11T01:27:31.951Z,25.60
2022-09-11T01:30:03.044Z,24.95
2022-09-11T01:32:36.784Z,25.52
2022-09-11T01:35:08.466Z,24.90
2022-09-11T01:37:39.789Z,23.83
2022-09-11T01:40:11.616Z,23.70
2022-09-11T01:42:43.283Z,24.70
2022-09-11T01:45:12.663Z,25.73
2022-09-11T01:47:42.189Z,26.02
2022-09-11T01:50:11.414Z,25.17
2022-09-11T01:52:44.925Z,24.25
2022-09-11T01:55:14.512Z,25.17
2022-09-11T01:57:46.403Z,25.42
2022-09-11T02:00:15.018Z,27.08
2022-09-11T02:02:45.899Z,26.15
2022-09-11T02:05:18.087Z,26.23
2022-09-11T02:07:48.285Z,27.80
2022-09-11T02:10:18.223Z,28.80
2022-09-11T02:12:50.664Z,28.95
2022-09-11T02:15:18.940Z,31.15
2022-09-11T02:17:52.284Z,29.35
2022-09-11T02:20:21.517Z,29.13
2022-09-11T02:22:49.458Z,29.97
2022-09-11T02:25:17.566Z,32.03
2022-09-11T02:27:45.234Z,31.05
2022-09-11T02:30:15.504Z,30.33
2022-09-11T02:32:45.370Z,30.70
2022-09-11T02:35:13.283Z,32.42
2022-09-11T02:37:50.207Z,30.55
2022-09-11T02:40:32.933Z,32.57
2022-09-11T02:43:25.821Z,30.55
2022-09-11T02:46:16.133Z,28.10
2022-09-11T02:48:49.568Z,31.73
2022-09-11T02:51:22.902Z,27.88
2022-09-11T02:53:55.407Z,30.30
2022-09-11T02:56:30.514Z,30.95
2022-09-11T02:59:00.889Z,32.08
2022-09-11T03:01:30.027Z,37.45
2022-09-11T03:03:57.706Z,32.50
2022-09-11T03:06:27.349Z,32.97
2022-09-11T03:08:55.614Z,30.05
2022-09-11T03:11:23.318Z,32.53
2022-09-11T03:13:50.903Z,34.88
2022-09-11T03:16:19.140Z,33.20
2022-09-11T03:18:48.278Z,32.15
2022-09-11T03:21:16.957Z,33.35
2022-09-11T03:23:44.693Z,30.50
2022-09-11T03:26:12.379Z,28.65
2022-09-11T03:28:40.463Z,31.67
2022-09-11T03:31:09.771Z,29.73
2022-09-11T03:33:37.470Z,31.15
2022-09-11T03:36:06.959Z,31.20
2022-09-11T03:38:34.583Z,28.60
2022-09-11T03:41:03.320Z,29.08
2022-09-11T03:43:31.434Z,27.95
2022-09-11T03:46:00.575Z,27.95
2022-09-11T03:48:29.149Z,27.35
2022-09-11T03:50:56.805Z,26.58
2022-09-11T03:53:26.672Z,27.85
2022-09-11T03:55:54.823Z,26.33
2022-09-11T03:58:22.504Z,26.67
2022-09-11T04:00:50.155Z,24.58
2022-09-11T04:03:18.257Z,24.70
2022-09-11T04:05:57.649Z,27.80
2022-09-11T04:08:26.893Z,26.13
2022-09-11T04:10:58.394Z,27.77
2022-09-11T04:13:29.736Z,25.60
2022-09-11T04:16:01.004Z,26.27
2022-09-11T04:18:28.704Z,26.23
2022-09-11T04:20:56.328Z,27.20
2022-09-11T04:23:24.092Z,25.23
2022-09-11T04:25:53.302Z,26.88
2022-09-11T04:28:21.421Z,24.70
2022-09-11T04:30:49.066Z,24.77
2022-09-11T04:33:16.649Z,26.27
2022-09-11T04:35:44.626Z,23.00
2022-09-11T04:38:12.321Z,23.13
2022-09-11T04:40:39.926Z,23.27
2022-09-11T04:43:11.348Z,23.23
2022-09-11T04:45:40.501Z,23.73
2022-09-11T04:48:08.280Z,24.03
2022-09-11T04:50:35.933Z,22.90
2022-09-11T04:53:03.603Z,24.38
2022-09-11T04:55:31.218Z,22.30
2022-09-11T04:57:58.838Z,23.35
2022-09-11T05:00:28.192Z,22.30
2022-09-11T05:02:55.909Z,23.65
2022-09-11T05:05:23.539Z,23.90
2022-09-11T05:07:51.432Z,21.83
2022-09-11T05:10:20.291Z,22.10
2022-09-11T05:12:47.883Z,21.23
2022-09-11T05:15:15.751Z,22.52
2022-09-11T05:17:44.711Z,21.45
2022-09-11T05:20:12.428Z,20.60
2022-09-11T05:22:40.081Z,19.38
2022-09-11T05:25:08.959Z,22.02
2022-09-11T05:27:36.593Z,20.38
2022-09-11T05:30:04.628Z,22.30
2022-09-11T05:32:32.286Z,21.60
2022-09-11T05:35:01.284Z,23.20
2022-09-11T05:37:28.968Z,22.02
2022-09-11T05:39:56.939Z,22.30
2022-09-11T05:42:24.722Z,24.23
2022-09-11T05:44:52.384Z,23.77
2022-09-11T05:47:19.945Z,27.05
2022-09-11T05:49:47.528Z,25.33
2022-09-11T05:52:16.528Z,26.27
2022-09-11T05:54:44.147Z,29.48
2022-09-11T05:57:11.753Z,25.73
2022-09-11T05:59:39.369Z,27.75
2022-09-11T06:02:07.013Z,26.17
2022-09-11T06:04:42.371Z,25.65
2022-09-11T06:07:10.023Z,26.13
2022-09-11T06:09:39.047Z,21.73
2022-09-11T06:12:07.065Z,23.92
2022-09-11T06:14:34.658Z,21.97
2022-09-11T06:17:02.249Z,21.55
2022-09-11T06:19:29.915Z,23.75
2022-09-11T06:21:57.514Z,20.52
2022-09-11T06:24:25.154Z,22.95
2022-09-11T06:26:54.093Z,23.07
2022-09-11T06:29:21.675Z,25.55
2022-09-11T06:31:51.336Z,26.23
2022-09-11T06:34:19.948Z,25.58
2022-09-11T06:36:51.773Z,25.55
2022-09-11T06:39:22.813Z,26.63
2022-09-11T06:41:50.553Z,27.15
2022-09-11T06:44:19.513Z,27.80
2022-09-11T06:46:47.770Z,28.95
2022-09-11T06:49:16.189Z,31.10
2022-09-11T06:51:43.851Z,30.33
2022-09-11T06:54:11.719Z,29.57
2022-09-11T06:56:39.491Z,28.55
2022-09-11T06:59:07.203Z,27.60
2022-09-11T07:01:36.338Z,29.40
2022-09-11T07:04:04.149Z,30.77
2022-09-11T07:06:32.058Z,30.25
2022-09-11T07:09:02.479Z,28.08
2022-09-11T07:11:32.255Z,30.37
2022-09-11T07:13:59.999Z,26.95
2022-09-11T07:16:27.674Z,29.13
2022-09-11T07:18:58.156Z,24.90
2022-09-11T07:21:28.069Z,23.48
2022-09-11T07:23:57.498Z,24.20
2022-09-11T07:26:27.952Z,26.98
2022-09-11T07:28:57.558Z,24.33
2022-09-11T07:31:29.081Z,24.67
2022-09-11T07:33:58.298Z,24.67
2022-09-11T07:36:27.586Z,23.55
2022-09-11T07:38:55.966Z,23.83
2022-09-11T07:41:24.913Z,24.55
2022-09-11T07:43:53.760Z,26.13
2022-09-11T07:46:21.426Z,26.53
2022-09-11T07:48:49.176Z,25.92
2022-09-11T07:51:19.755Z,26.25
2022-09-11T07:53:48.850Z,25.42
2022-09-11T07:56:18.338Z,24.90
2022-09-11T07:58:46.356Z,24.85
2022-09-11T08:01:15.767Z,25.40
2022-09-11T08:03:44.276Z,27.80
2022-09-11T08:06:14.785Z,26.83
2022-09-11T08:08:45.517Z,27.67
2022-09-11T08:11:14.730Z,27.48
2022-09-11T08:13:42.881Z,27.77
2022-09-11T08:16:10.783Z,25.77
2022-09-11T08:18:38.413Z,25.88
2022-09-11T08:21:12.569Z,26.40
2022-09-11T08:23:41.901Z,25.30
2022-09-11T08:26:13.387Z,25.63
2022-09-11T08:28:42.900Z,24.80
2022-09-11T08:31:11.100Z,24.52
2022-09-11T08:33:39.513Z,25.40
2022-09-11T08:36:09.668Z,24.45
2022-09-11T08:38:37.609Z,24.92
2022-09-11T08:41:13.522Z,23.70
2022-09-11T08:43:47.033Z,24.55
2022-09-11T08:46:14.769Z,25.20
2022-09-11T08:48:49.108Z,25.65
2022-09-11T08:51:18.657Z,24.70
2022-09-11T08:53:46.454Z,24.08
2022-09-11T08:56:18.962Z,24.63
2022-09-11T08:58:56.131Z,25.27
2022-09-11T09:01:27.584Z,22.80
2022-09-11T09:04:10.560Z,24.65
2022-09-11T09:06:50.075Z,24.38
2022-09-11T09:09:25.723Z,24.23
2022-09-11T09:11:57.515Z,23.17
2022-09-11T09:14:35.267Z,22.00
2022-09-11T09:17:05.688Z,21.60
2022-09-11T09:19:36.067Z,21.75
2022-09-11T09:22:09.043Z,22.10
2022-09-11T09:24:42.690Z,20.80
2022-09-11T09:27:21.437Z,21.00
2022-09-11T09:29:52.270Z,20.90
2022-09-11T09:32:25.130Z,19.50
2022-09-11T09:34:53.932Z,19.87
2022-09-11T09:37:23.450Z,18.95
2022-09-11T09:39:52.266Z,19.17
2022-09-11T09:42:39.280Z,18.50
2022-09-11T09:45:23.505Z,18.67
2022-09-11T09:47:51.261Z,17.50
2022-09-11T09:50:21.674Z,17.92
2022-09-11T09:52:50.434Z,17.20
2022-09-11T09:55:20.467Z,14.23
2022-09-11T09:57:50.332Z,12.80
2022-09-11T10:00:20.063Z,12.93
2022-09-11T10:02:53.642Z,11.63
2022-09-11T10:05:26.461Z,12.20
2022-09-11T10:07:56.768Z,10.80
2022-09-11T10:10:31.204Z,8.07
2022-09-11T10:13:18.009Z,9.75
2022-09-11T10:15:49.765Z,7.65
2022-09-11T10:18:25.474Z,8.15
2022-09-11T10:20:54.701Z,7.47
2022-09-11T10:23:24.549Z,9.30
2022-09-11T10:25:52.366Z,8.60
2022-09-11T10:28:26.638Z,8.73
2022-09-11T10:30:59.354Z,7.60
2022-09-11T10:33:29.752Z,7.22
2022-09-11T10:35:58.708Z,7.55
2022-09-11T10:38:31.439Z,7.57
2022-09-11T10:41:04.390Z,7.43
2022-09-11T10:43:39.455Z,7.72
2022-09-11T10:46:23.178Z,7.67
2022-09-11T10:48:56.150Z,7.75
2022-09-11T10:51:25.139Z,7.00
2022-09-11T10:54:09.973Z,7.22
2022-09-11T10:56:50.605Z,6.70
2022-09-11T10:59:23.371Z,6.72
2022-09-11T11:01:51.355Z,6.20
2022-09-11T11:04:19.085Z,5.55
2022-09-11T11:06:56.198Z,5.43
2022-09-11T11:09:34.649Z,4.97
2022-09-11T11:12:17.242Z,5.40
2022-09-11T11:14:58.669Z,5.22
2022-09-11T11:17:32.514Z,4.72
2022-09-11T11:20:09.979Z,6.00
2022-09-11T11:22:56.125Z,5.13
2022-09-11T11:25:28.740Z,4.40
2022-09-11T11:28:11.701Z,5.30
2022-09-11T11:30:45.828Z,4.80
2022-09-11T11:33:57.991Z,4.05
2022-09-11T11:36:28.846Z,4.20
2022-09-11T11:39:02.133Z,4.32
2022-09-11T11:41:31.755Z,3.78
2022-09-11T11:44:03.420Z,4.97
2022-09-11T11:46:33.496Z,4.07
2022-09-11T11:49:05.758Z,3.57
2022-09-11T11:51:36.214Z,3.80
2022-09-11T11:54:06.674Z,4.10
2022-09-11T11:56:40.789Z,3.42
2022-09-11T11:59:13.541Z,3.42
2022-09-11T12:01:44.037Z,3.63
2022-09-11T12:04:24.198Z,4.20
2022-09-11T12:06:51.942Z,4.32
2022-09-11T12:09:19.967Z,4.63
2022-09-11T12:11:49.679Z,4.63
2022-09-11T12:14:27.512Z,4.50
2022-09-11T12:16:56.535Z,4.80
2022-09-11T12:19:26.244Z,5.00
2022-09-11T12:22:14.678Z,4.00
2022-09-11T12:24:58.639Z,3.92
2022-09-11T12:27:53.152Z,4.20
2022-09-11T12:30:28.583Z,4.43
2022-09-11T12:32:57.226Z,4.18
2022-09-11T12:35:30.743Z,4.05
2022-09-11T12:38:02.670Z,3.65
2022-09-11T12:40:35.818Z,3.28
2022-09-11T12:43:31.096Z,2.90
2022-09-11T12:48:38.657Z,2.80
2022-09-11T12:51:07.329Z,2.30
2022-09-11T12:53:37.627Z,2.05
2022-09-11T12:56:07.117Z,1.52
2022-09-11T12:58:37.484Z,2.25
2022-09-11T13:01:15.740Z,2.63
2022-09-11T13:03:51.571Z,2.20
2022-09-11T13:06:19.482Z,2.08
2022-09-11T13:08:50.338Z,1.30
2022-09-11T13:11:42.152Z,0.50
2022-09-11T13:14:45.684Z,0.65
2022-09-11T13:17:16.344Z,1.23
2022-09-11T13:19:45.389Z,1.25
2022-09-11T13:22:22.542Z,1.30
2022-09-11T13:24:50.459Z,1.38
2022-09-11T13:27:23.897Z,1.10
2022-09-11T13:29:52.050Z,0.90
2022-09-11T13:32:20.041Z,1.60
2022-09-11T13:34:50.991Z,1.80
2022-09-11T13:37:31.122Z,1.55
2022-09-11T13:39:59.648Z,1.43
2022-09-11T13:42:28.380Z,1.30
2022-09-11T13:44:57.039Z,0.80
2022-09-11T13:47:25.960Z,0.80
2022-09-11T13:49:57.958Z,1.15
2022-09-11T13:52:27.538Z,0.70
2022-09-11T13:54:56.283Z,0.40
2022-09-11T13:57:24.911Z,0.60
2022-09-11T13:59:54.214Z,0.57
2022-09-11T14:02:32.138Z,0.75
2022-09-11T14:05:13.794Z,1.17
2022-09-11T14:07:56.498Z,0.90
2022-09-11T14:10:32.908Z,0.70
2022-09-11T14:13:14.095Z,0.63
2022-09-11T14:15:43.851Z,0.80
2022-09-11T14:18:17.501Z,0.80
2022-09-11T14:20:47.151Z,0.77
2022-09-11T14:23:20.262Z,1.15
2022-09-11T14:26:07.593Z,1.17
2022-09-11T14:28:37.346Z,1.70
2022-09-11T14:31:09.429Z,1.20
2022-09-11T14:33:37.108Z,1.35
2022-09-11T14:36:10.770Z,1.30
2022-09-11T14:38:39.117Z,1.37
2022-09-11T14:41:08.055Z,1.40
2022-09-11T14:43:36.510Z,1.20
2022-09-11T14:46:04.508Z,1.45
2022-09-11T14:48:34.587Z,1.60
2022-09-11T14:51:09.898Z,0.80
2022-09-11T14:53:43.365Z,0.83
2022-09-11T14:56:11.261Z,0.70
2022-09-11T14:58:38.986Z,0.95
2022-09-11T15:01:06.980Z,1.00
2022-09-11T15:03:34.940Z,0.98
2022-09-11T15:06:02.645Z,0.90
2022-09-11T15:08:30.278Z,1.08
2022-09-11T15:10:59.471Z,1.10
2022-09-11T15:13:27.236Z,0.83
2022-09-11T15:15:56.118Z,0.80
2022-09-11T15:18:23.840Z,0.70
2022-09-11T15:20:51.452Z,0.90
2022-09-11T15:23:19.033Z,0.80
2022-09-11T15:25:46.778Z,0.80
2022-09-11T15:28:15.916Z,0.90
2022-09-11T15:30:43.655Z,0.47
2022-09-11T15:33:11.371Z,0.80
2022-09-11T15:35:39.012Z,0.80
2022-09-11T15:38:06.432Z,0.73
2022-09-11T15:40:36.216Z,0.82
2022-09-11T15:43:03.942Z,1.00
2022-09-11T15:45:33.085Z,1.77
2022-09-11T15:48:00.893Z,3.13
2022-09-11T15:50:30.153Z,3.00
2022-09-11T15:52:57.806Z,2.33
2022-09-11T15:55:26.621Z,3.13
2022-09-11T15:57:54.246Z,3.15
2022-09-11T16:00:22.008Z,3.40
2022-09-11T16:02:53.515Z,3.70
2022-09-11T16:05:23.011Z,3.17
2022-09-11T16:07:50.661Z,3.47
2022-09-11T16:10:18.595Z,3.83
2022-09-11T16:12:47.031Z,3.75
2022-09-11T16:15:14.726Z,3.40
2022-09-11T16:17:42.381Z,3.10
2022-09-11T16:20:12.751Z,3.58
2022-09-11T16:22:44.621Z,4.30
2022-09-11T16:25:12.331Z,4.38
2022-09-11T16:27:40.157Z,4.03
2022-09-11T16:30:39.313Z,4.68
2022-09-11T16:32:57.613Z,4.43
2022-09-11T16:35:27.304Z,5.20
2022-09-11T16:37:54.936Z,5.45
2022-09-11T16:40:22.807Z,5.10
2022-09-11T16:42:50.495Z,5.23
2022-09-11T16:45:19.600Z,4.72
2022-09-11T16:47:47.290Z,5.85
2022-09-11T16:50:14.909Z,4.90
2022-09-11T16:52:43.961Z,5.55
2022-09-11T16:55:11.711Z,5.45
2022-09-11T16:57:39.715Z,5.45
2022-09-11T17:00:09.154Z,5.32
2022-09-11T17:02:37.363Z,5.25
2022-09-11T17:05:05.903Z,4.88
2022-09-11T17:07:33.528Z,5.45
2022-09-11T17:10:02.607Z,4.88
2022-09-11T17:12:30.202Z,4.90
2022-09-11T17:14:58.029Z,4.80
2022-09-11T17:17:25.760Z,4.55
2022-09-11T17:19:54.040Z,5.43
2022-09-11T17:22:21.788Z,6.18
2022-09-11T17:24:49.425Z,6.05
2022-09-11T17:27:18.444Z,5.90
2022-09-11T17:29:47.247Z,5.90
2022-09-11T17:32:27.718Z,5.20
2022-09-11T17:34:56.845Z,5.25
2022-09-11T17:37:25.847Z,4.78
2022-09-11T17:39:53.659Z,6.05
2022-09-11T17:42:23.033Z,6.55
2022-09-11T17:44:50.946Z,5.75
2022-09-11T17:47:19.510Z,5.75
2022-09-11T17:49:47.223Z,6.30
2022-09-11T17:52:15.536Z,6.40
2022-09-11T17:54:43.394Z,6.03
2022-09-11T17:57:11.914Z,7.00
2022-09-11T17:59:42.750Z,7.57
2022-09-11T18:02:11.688Z,7.67
2022-09-11T18:04:39.507Z,8.10
2022-09-11T18:07:07.367Z,8.10
2022-09-11T18:09:34.973Z,9.07
2022-09-11T18:12:04.064Z,9.70
2022-09-11T18:14:31.876Z,9.07
2022-09-11T18:17:00.985Z,9.02
2022-09-11T18:19:29.189Z,9.18
2022-09-11T18:21:57.342Z,9.70
2022-09-11T18:24:29.827Z,10.57
2022-09-11T18:27:00.927Z,10.38
2022-09-11T18:29:30.387Z,10.98
2022-09-11T18:31:59.911Z,10.57
2022-09-11T18:34:31.129Z,10.15
2022-09-11T18:36:59.921Z,10.32
2022-09-11T18:39:28.323Z,10.43
2022-09-11T18:41:56.044Z,10.63
2022-09-11T18:44:25.297Z,10.85
2022-09-11T18:46:54.432Z,10.18
2022-09-11T18:49:22.721Z,10.10
2022-09-11T18:51:51.860Z,10.60
2022-09-11T18:54:20.892Z,10.48
2022-09-11T18:56:49.711Z,10.30
2022-09-11T18:59:17.561Z,10.52
2022-09-11T19:01:45.467Z,10.88
2022-09-11T19:04:14.639Z,10.40
2022-09-11T19:06:42.594Z,11.30
2022-09-11T19:09:12.871Z,10.73
2022-09-11T19:11:41.080Z,10.70
2022-09-11T19:14:10.476Z,11.10
2022-09-11T19:16:39.439Z,11.25
2022-09-11T19:19:08.112Z,11.35
2022-09-11T19:21:37.891Z,11.73
2022-09-11T19:24:06.690Z,11.25
2022-09-11T19:26:37.523Z,11.27
2022-09-11T19:29:05.236Z,11.50
2022-09-11T19:31:33.788Z,10.43
2022-09-11T19:34:02.052Z,10.95
2022-09-11T19:36:31.111Z,11.05
2022-09-11T19:39:00.613Z,11.23
2022-09-11T19:41:31.246Z,10.83
2022-09-11T19:44:01.525Z,10.30
2022-09-11T19:46:30.420Z,11.07
2022-09-11T19:49:00.793Z,11.23
2022-09-11T19:51:29.917Z,11.30
2022-09-11T19:54:00.291Z,11.25
2022-09-11T19:56:28.607Z,11.80
2022-09-11T19:58:56.376Z,12.20
2022-09-11T20:01:26.258Z,11.60
2022-09-11T20:03:55.109Z,11.85
2022-09-11T20:06:24.840Z,11.73
2022-09-11T20:09:07.958Z,11.73
2022-09-11T20:11:41.360Z,12.97
2022-09-11T20:14:09.670Z,12.55
2022-09-11T20:16:38.721Z,12.23
2022-09-11T20:19:06.684Z,12.40
2022-09-11T20:21:36.023Z,12.65
2022-09-11T20:24:06.206Z,12.65
2022-09-11T20:26:34.280Z,12.38
2022-09-11T20:29:03.633Z,12.65
2022-09-11T20:31:32.624Z,12.13
2022-09-11T20:34:02.485Z,12.25
2022-09-11T20:36:31.143Z,12.80
2022-09-11T20:39:00.643Z,12.68
2022-09-11T20:41:30.575Z,12.32
2022-09-11T20:44:00.536Z,11.93
2022-09-11T20:46:28.400Z,11.98
2022-09-11T20:48:56.147Z,11.65
2022-09-11T20:51:25.266Z,11.45
2022-09-11T20:53:53.028Z,11.65
2022-09-11T20:56:22.609Z,12.13
2022-09-11T20:58:50.575Z,11.20
2022-09-11T21:01:21.140Z,11.10
2022-09-11T21:03:50.122Z,11.10
2022-09-11T21:06:22.061Z,10.60
2022-09-11T21:08:55.375Z,10.95
2022-09-11T21:11:23.315Z,11.05
2022-09-11T21:13:50.969Z,11.70
2022-09-11T21:16:19.733Z,12.00
2022-09-11T21:18:49.099Z,12.93
2022-09-11T21:21:17.068Z,12.00
2022-09-11T21:23:44.817Z,11.50
2022-09-11T21:26:16.602Z,11.57
2022-09-11T21:28:44.422Z,11.98
2022-09-11T21:31:12.536Z,11.70
2022-09-11T21:33:40.505Z,12.53
2022-09-11T21:36:08.534Z,11.90
2022-09-11T21:38:37.651Z,11.27
2022-09-11T21:41:06.913Z,11.47
2022-09-11T21:43:36.158Z,11.40
2022-09-11T21:46:04.103Z,10.87
2022-09-11T21:48:35.771Z,11.60
2022-09-11T21:51:07.954Z,11.60
2022-09-11T21:53:35.651Z,11.52
2022-09-11T21:56:03.716Z,10.90
2022-09-11T21:58:31.356Z,11.17
2022-09-11T22:01:05.888Z,10.68
2022-09-11T22:03:33.703Z,10.13
2022-09-11T22:06:05.487Z,10.30
2022-09-11T22:08:33.282Z,10.18
2022-09-11T22:11:02.948Z,10.70
2022-09-11T22:13:30.832Z,10.15
2022-09-11T22:16:00.217Z,10.57
2022-09-11T22:18:29.295Z,10.18
2022-09-11T22:21:00.375Z,9.87
2022-09-11T22:23:29.906Z,10.32
2022-09-11T22:26:01.412Z,10.20
2022-09-11T22:28:29.528Z,10.30
2022-09-11T22:30:57.395Z,9.30
2022-09-11T22:33:25.656Z,9.35
2022-09-11T22:35:54.744Z,9.20
2022-09-11T22:38:22.382Z,9.30
2022-09-11T22:40:53.976Z,10.55
2022-09-11T22:43:21.958Z,10.02
2022-09-11T22:45:52.821Z,9.73
2022-09-11T22:48:20.844Z,9.50
2022-09-11T22:50:48.722Z,10.40
2022-09-11T22:53:17.932Z,10.57
2022-09-11T22:55:46.361Z,10.40
2022-09-11T22:58:14.457Z,10.48
2022-09-11T23:00:43.183Z,10.57
2022-09-11T23:03:10.984Z,10.85
2022-09-11T23:05:56.435Z,11.13
2022-09-11T23:08:29.289Z,10.35
2022-09-11T23:11:00.055Z,10.88
2022-09-11T23:13:27.740Z,12.52
2022-09-11T23:15:57.326Z,11.50
2022-09-11T23:18:25.818Z,11.15
2022-09-11T23:20:54.215Z,11.10
2022-09-11T23:23:22.275Z,10.85
2022-09-11T23:25:51.625Z,11.25
2022-09-11T23:28:19.634Z,11.90
2022-09-11T23:30:47.311Z,10.80
2022-09-11T23:33:14.990Z,11.77
2022-09-11T23:35:42.582Z,12.35
2022-09-11T23:38:10.269Z,12.02
2022-09-11T23:40:37.901Z,12.60
2022-09-11T23:43:06.920Z,12.32
2022-09-11T23:45:34.581Z,12.90
2022-09-11T23:48:02.682Z,14.00
2022-09-11T23:50:30.422Z,13.95
2022-09-11T23:52:58.064Z,15.02
2022-09-11T23:55:25.713Z,14.43
2022-09-11T23:57:55.363Z,15.02
